Kyra, Russia
Current Conditions -  °F | °C
As of 6:30 PM on Saturday 25 Oct 2014 (Local Time) from UIAA Reporting Station
Few Clouds Few Clouds  
Wind Chill: 13°   Ceiling: Unl
Heat Index: 21°   Visibility: 6mi
Dew Point:   Wind: 7mph
Humidity: 39%   Direction: 320°NW
Pressure: 30.18"   Gusts: NA
Location:  49.58°N, 111.97°E
Report Text: UIAA 250930Z 32003MPS 9999 FEW050 M06/M18 Q1022 TEMPO32006G12MPS RMK QFE707 29CLRD70
Loading
Personal Weather Stations






























Interactive Weather Map
Tropical Storm Tracking
New forecast layout! Learn more

10-Day Weather Forecast

Advertisements
Track Severe Weather on mobile